TTA weather

Tan Tan Airport
Tan Tan, Tan-Tan Province, Morocco

Public forecast

Using degrees Celsius for public forecast. Weather courtesy of forecast.io.

Current aviation weather report (METAR) for Tan Tan Airport

Retrieved 2019/12/06 15:00 UTC (18 minutes ago):

GMAT 061500Z 10004KT 8000 SCT013 17/13 Q1012 NOSIG

Closest aviation forecast (TAF) to Tan Tan Airport

Forecast is more than 12 hours old.

Closest forecast is Sidi Ifni Xx Airport, 75.2 nm (139.3 km) NE. Retrieved 2017/11/16 18:00 UTC (2 years ago):

TAF GMMF 161700Z 1618/1724 02008KT CAVOK BECMG 1620/1624 10004KT 8000 NSC PROB30 TEMPO 1702/1707 3000 BR BKN010